Time;durP1;ratioP1;P1;durP2;ratioP2;P2;SDS_P1;SDS_P2;PMS_P1;PMS_P2;Temp;Humidity;BMP_temperature;BMP_pressure;BME280_temperature;BME280_humidity;BME280_pressure;Samples;Min_cycle;Max_cycle;Signal;HPM_P1;HPM_P2
2022/09/10 00:00:33;;;;;;;;;;;;;;;19.64;62.06;98918.44;5073891;28;20018;-46
2022/09/10 00:03:01;;;;;;;;;;;;;;;19.87;61.75;98913.84;5039708;28;20294;-47
2022/09/10 00:05:27;;;;;;;;;;;;;;;20.17;61.54;98918.56;5073859;28;19922;-48
2022/09/10 00:07:53;;;;;;;;;;;;;;;20.40;60.81;98924.56;5055747;28;20007;-48
2022/09/10 00:10:19;;;;;;;;;;;;;;;20.57;60.11;98927.06;5073761;28;20031;-48
2022/09/10 00:12:47;;;;;;;;;;;;;;;20.49;59.63;98923.81;5073687;28;20398;-48
2022/09/10 00:15:12;;;;;;;;;;;;;;;20.44;60.00;98925.63;5073617;28;20360;-48
2022/09/10 00:17:38;;;;;;;;;;;;;;;20.34;59.52;98908.53;5073584;28;19917;-48
2022/09/10 00:20:04;;;;;;;;;;;;;;;20.00;59.73;98920.56;5073531;28;19924;-48
2022/09/10 00:22:29;;;;;;;;;;;;;;;19.66;60.85;98929.63;5055524;28;19924;-47
2022/09/10 00:24:56;;;;;;;;;;;;;;;19.90;62.05;98924.78;5073143;28;19923;-48
2022/09/10 00:27:22;;;;;;;;;;;;;;;20.26;61.31;98922.38;5073377;28;20003;-48
2022/09/10 00:29:52;;;;;;;;;;;;;;;20.52;60.57;98925.97;5055319;28;19920;-48
2022/09/10 00:32:17;;;;;;;;;;;;;;;20.61;59.69;98917.50;5055238;28;19920;-47
2022/09/10 00:34:43;;;;;;;;;;;;;;;20.61;59.46;98920.16;5055287;28;19931;-48
2022/09/10 00:37:08;;;;;;;;;;;;;;;20.50;59.04;98916.59;5055264;28;19917;-48
2022/09/10 00:39:34;;;;;;;;;;;;;;;20.35;60.34;98920.00;5073042;28;19948;-49
2022/09/10 00:41:59;;;;;;;;;;;;;;;20.12;62.48;98921.19;5055053;28;19916;-48
2022/09/10 00:44:39;;;;;;;;;;;;;;;19.77;63.63;98925.22;5073026;28;19920;-48
2022/09/10 00:47:07;;;;;;;;;;;;;;;19.41;65.00;98914.22;5072839;28;19920;-47
2022/09/10 00:49:36;;;;;;;;;;;;;;;18.91;66.27;98912.66;5072939;28;20023;-47
2022/09/10 00:52:02;;;;;;;;;;;;;;;18.36;66.95;98911.69;5054951;28;19921;-48
2022/09/10 00:54:29;;;;;;;;;;;;;;;18.31;68.13;98923.06;5072910;28;19916;-48
2022/09/10 00:56:55;;;;;;;;;;;;;;;18.39;68.25;98908.56;5072833;28;19917;-48
2022/09/10 00:59:24;;;;;;;;;;;;;;;18.20;68.19;98917.84;5054835;28;19927;-48
2022/09/10 01:01:50;;;;;;;;;;;;;;;17.89;68.67;98912.09;5072584;28;19961;-48
2022/09/10 01:04:15;;;;;;;;;;;;;;;17.65;69.36;98911.44;5054737;28;19921;-48
2022/09/10 01:06:44;;;;;;;;;;;;;;;17.48;69.87;98906.09;5054588;28;19927;-48
2022/09/10 01:09:10;;;;;;;;;;;;;;;17.61;69.92;98916.41;5072671;28;20306;-48
2022/09/10 01:11:42;;;;;;;;;;;;;;;17.88;69.30;98915.78;5072513;28;20464;-48
2022/09/10 01:14:16;;;;;;;;;;;;;;;18.05;68.93;98913.94;5072772;28;19955;-48
2022/09/10 01:16:42;;;;;;;;;;;;;;;18.17;68.09;98909.31;5054521;28;19917;-48
2022/09/10 01:19:21;;;;;;;;;;;;;;;18.21;67.67;98912.31;5072517;28;19916;-48
2022/09/10 01:22:25;;;;;;;;;;;;;;;18.11;67.51;98910.31;5072447;28;19917;-48
2022/09/10 01:24:50;;;;;;;;;;;;;;;17.93;67.98;98902.59;4993725;28;19917;-48
2022/09/10 01:27:34;;;;;;;;;;;;;;;18.10;68.25;98905.22;5010548;28;20423;-48
2022/09/10 01:30:00;;;;;;;;;;;;;;;18.25;67.66;98899.31;4993975;28;19956;-51
2022/09/10 01:32:32;;;;;;;;;;;;;;;18.31;67.63;98896.50;5010445;28;19945;-51
2022/09/10 01:35:06;;;;;;;;;;;;;;;18.45;67.23;98893.47;5010456;28;19922;-51
2022/09/10 01:37:34;;;;;;;;;;;;;;;18.33;66.80;98889.09;5010477;28;19949;-51
2022/09/10 01:40:02;;;;;;;;;;;;;;;18.01;67.12;98894.22;5010389;28;19918;-51
2022/09/10 01:42:27;;;;;;;;;;;;;;;17.65;67.84;98893.66;5010306;28;19928;-50
2022/09/10 01:44:54;;;;;;;;;;;;;;;17.43;68.43;98893.56;5010214;28;19917;-50
2022/09/10 01:47:33;;;;;;;;;;;;;;;17.34;68.36;98892.31;5010237;28;19979;-51
2022/09/10 01:50:17;;;;;;;;;;;;;;;17.35;68.36;98897.41;5009846;28;19952;-50
2022/09/10 01:53:10;;;;;;;;;;;;;;;17.69;68.73;98886.00;4993755;28;19940;-51
2022/09/10 01:55:59;;;;;;;;;;;;;;;18.00;67.66;98889.16;5021182;28;19917;-51
2022/09/10 01:58:36;;;;;;;;;;;;;;;17.99;67.18;98885.69;5030875;28;20311;-51
2022/09/10 02:01:01;;;;;;;;;;;;;;;18.12;67.19;98889.84;5032058;28;19972;-51
2022/09/10 02:03:27;;;;;;;;;;;;;;;18.52;67.16;98883.47;5032138;28;19921;-50
2022/09/10 02:05:55;;;;;;;;;;;;;;;18.77;66.58;98880.28;5031997;28;19966;-51
2022/09/10 02:08:27;;;;;;;;;;;;;;;19.09;65.96;98877.72;5031951;28;19924;-51
2022/09/10 02:10:55;;;;;;;;;;;;;;;19.42;65.02;98880.41;5031892;28;19917;-51
2022/09/10 02:13:21;;;;;;;;;;;;;;;19.68;64.16;98879.59;5031912;28;19917;-51
2022/09/10 02:15:48;;;;;;;;;;;;;;;19.85;63.01;98876.00;5031893;28;19917;-51
2022/09/10 02:18:14;;;;;;;;;;;;;;;19.84;62.67;98879.72;5032182;28;20035;-50
2022/09/10 02:20:40;;;;;;;;;;;;;;;19.62;62.31;98877.94;5031876;28;19925;-51
2022/09/10 02:23:06;;;;;;;;;;;;;;;19.29;62.45;98882.44;5030552;28;19928;-51
2022/09/10 02:25:33;;;;;;;;;;;;;;;18.99;62.77;98876.84;5037843;28;19983;-51
2022/09/10 02:27:59;;;;;;;;;;;;;;;18.76;63.06;98879.50;5050348;28;19921;-51
2022/09/10 02:30:25;;;;;;;;;;;;;;;18.61;63.17;98881.97;5051697;28;20345;-51
2022/09/10 02:32:50;;;;;;;;;;;;;;;18.55;63.40;98877.63;5050325;28;20019;-51
2022/09/10 02:35:16;;;;;;;;;;;;;;;18.47;63.37;98883.38;5051675;28;19917;-50
2022/09/10 02:37:42;;;;;;;;;;;;;;;18.34;63.42;98877.38;5051605;28;19986;-51
2022/09/10 02:40:08;;;;;;;;;;;;;;;18.37;64.25;98884.06;5051840;28;19917;-51
2022/09/10 02:42:33;;;;;;;;;;;;;;;18.85;64.78;98873.75;5051728;28;19939;-51
2022/09/10 02:44:59;;;;;;;;;;;;;;;19.28;63.95;98872.88;5051832;28;20398;-50
2022/09/10 02:47:24;;;;;;;;;;;;;;;19.45;62.41;98866.63;5051398;28;19917;-51
2022/09/10 02:49:49;;;;;;;;;;;;;;;19.23;62.61;98875.47;5051540;28;19995;-50
2022/09/10 02:52:15;;;;;;;;;;;;;;;19.24;62.98;98879.75;5051499;28;19916;-51
2022/09/10 02:54:40;;;;;;;;;;;;;;;19.32;62.72;98873.19;5051513;28;19928;-50
2022/09/10 02:57:06;;;;;;;;;;;;;;;19.38;62.40;98876.66;5051468;28;19924;-50
2022/09/10 02:59:32;;;;;;;;;;;;;;;19.12;62.13;98879.09;5051442;28;19975;-51
2022/09/10 03:02:00;;;;;;;;;;;;;;;19.18;63.13;98879.97;5052014;28;19917;-50
2022/09/10 03:04:26;;;;;;;;;;;;;;;19.54;62.77;98876.56;5055038;28;19921;-51
2022/09/10 03:06:53;;;;;;;;;;;;;;;19.67;62.37;98877.19;5054878;28;20015;-51
2022/09/10 03:09:19;;;;;;;;;;;;;;;19.71;61.69;98884.41;5055190;28;19971;-51
2022/09/10 03:11:45;;;;;;;;;;;;;;;19.47;61.66;98878.59;5054870;28;19971;-51
2022/09/10 03:14:15;;;;;;;;;;;;;;;19.30;62.04;98878.75;5054858;28;19917;-50
2022/09/10 03:16:40;;;;;;;;;;;;;;;19.36;62.32;98875.06;5055004;28;20306;-51
2022/09/10 03:19:06;;;;;;;;;;;;;;;19.40;62.13;98878.03;5054792;28;19916;-51
2022/09/10 03:21:33;;;;;;;;;;;;;;;19.43;62.06;98874.06;5054712;28;19928;-51
2022/09/10 03:23:58;;;;;;;;;;;;;;;19.37;61.84;98875.88;5054633;28;20315;-51
2022/09/10 03:26:24;;;;;;;;;;;;;;;19.38;61.77;98879.31;5069041;28;19920;-50
2022/09/10 03:28:49;;;;;;;;;;;;;;;19.39;61.61;98883.59;5056591;28;19916;-51
2022/09/10 03:31:16;;;;;;;;;;;;;;;19.36;61.55;98882.25;5074550;28;20318;-50
2022/09/10 03:33:42;;;;;;;;;;;;;;;19.28;61.49;98875.53;5074464;28;19923;-52
2022/09/10 03:36:14;;;;;;;;;;;;;;;19.38;61.67;98881.97;5056483;28;19917;-51
2022/09/10 03:38:40;;;;;;;;;;;;;;;19.41;61.25;98881.50;5074330;28;19920;-51
2022/09/10 03:41:05;;;;;;;;;;;;;;;19.32;61.02;98878.50;5074356;28;20031;-51
2022/09/10 03:43:31;;;;;;;;;;;;;;;19.10;60.76;98882.00;5074290;28;19920;-51
2022/09/10 03:45:56;;;;;;;;;;;;;;;18.85;61.21;98890.50;5074254;28;19967;-51
2022/09/10 03:48:22;;;;;;;;;;;;;;;18.93;61.93;98886.63;5074177;28;19916;-51
2022/09/10 03:50:49;;;;;;;;;;;;;;;19.10;61.92;98884.66;5074118;28;19917;-50
2022/09/10 03:53:16;;;;;;;;;;;;;;;19.25;61.41;98881.34;5074062;28;19920;-51
2022/09/10 03:55:43;;;;;;;;;;;;;;;19.16;60.91;98882.88;5074037;28;20286;-50
2022/09/10 03:58:08;;;;;;;;;;;;;;;19.07;61.31;98890.47;5056022;28;19985;-51
2022/09/10 04:00:34;;;;;;;;;;;;;;;19.12;61.38;98884.44;5055895;28;19916;-51
2022/09/10 04:03:04;;;;;;;;;;;;;;;19.02;61.05;98881.66;5055929;28;19917;-51
2022/09/10 04:05:31;;;;;;;;;;;;;;;18.94;61.05;98889.03;5074019;28;19916;-49
2022/09/10 04:07:57;;;;;;;;;;;;;;;18.57;60.75;98880.84;5073644;28;20014;-51
2022/09/10 04:10:26;;;;;;;;;;;;;;;18.10;61.29;98890.09;5073727;28;19970;-52
2022/09/10 04:12:52;;;;;;;;;;;;;;;17.93;62.12;98886.66;5073235;28;20007;-51
2022/09/10 04:15:18;;;;;;;;;;;;;;;17.79;62.48;98883.50;5073587;28;19916;-51
2022/09/10 04:17:45;;;;;;;;;;;;;;;17.49;62.62;98897.09;5073606;28;19986;-51
2022/09/10 04:20:11;;;;;;;;;;;;;;;17.13;63.35;98891.19;5055590;28;19923;-50
2022/09/10 04:22:36;;;;;;;;;;;;;;;16.98;64.92;98889.03;5073433;28;19921;-50
2022/09/10 04:25:01;;;;;;;;;;;;;;;16.74;64.56;98899.72;5073143;28;19973;-50
2022/09/10 04:27:27;;;;;;;;;;;;;;;16.92;65.79;98904.06;5073388;28;20398;-51
2022/09/10 04:29:53;;;;;;;;;;;;;;;17.08;65.22;98901.69;5073358;28;20409;-51
2022/09/10 04:32:18;;;;;;;;;;;;;;;17.05;64.78;98896.84;5073161;28;19962;-51
2022/09/10 04:34:44;;;;;;;;;;;;;;;16.99;64.96;98897.81;5055265;28;19923;-50
2022/09/10 04:37:10;;;;;;;;;;;;;;;16.82;65.20;98897.75;5073244;28;19916;-51
2022/09/10 04:39:35;;;;;;;;;;;;;;;16.65;65.08;98905.59;5073174;28;19924;-51
2022/09/10 04:42:01;;;;;;;;;;;;;;;16.60;65.71;98901.00;5055127;28;19936;-51
2022/09/10 04:44:28;;;;;;;;;;;;;;;16.37;66.21;98901.84;5073032;28;19917;-51
2022/09/10 04:46:54;;;;;;;;;;;;;;;16.11;66.99;98903.94;5072949;28;19917;-51
2022/09/10 04:49:19;;;;;;;;;;;;;;;15.92;67.44;98908.53;5072956;28;19927;-50
2022/09/10 04:51:45;;;;;;;;;;;;;;;15.75;68.36;98907.59;5054929;28;20016;-51
2022/09/10 04:54:13;;;;;;;;;;;;;;;15.60;69.23;98907.22;5072918;28;19924;-50
2022/09/10 04:56:39;;;;;;;;;;;;;;;15.46;70.07;98914.56;5072791;28;19916;-50
2022/09/10 04:59:04;;;;;;;;;;;;;;;15.33;70.66;98916.34;5072836;28;19943;-51
2022/09/10 05:01:30;;;;;;;;;;;;;;;15.14;71.04;98912.16;5072730;28;19938;-50
2022/09/10 05:03:55;;;;;;;;;;;;;;;14.99;70.95;98923.13;5054727;28;19959;-51
2022/09/10 05:06:22;;;;;;;;;;;;;;;14.96;71.81;98924.34;5072695;28;20310;-51
2022/09/10 05:08:47;;;;;;;;;;;;;;;14.92;71.99;98923.19;5072571;28;19917;-51
2022/09/10 05:11:13;;;;;;;;;;;;;;;14.92;71.58;98933.75;5072594;28;20344;-51
2022/09/10 05:13:38;;;;;;;;;;;;;;;14.98;71.64;98927.59;5072594;28;19916;-50
2022/09/10 05:16:04;;;;;;;;;;;;;;;15.01;72.50;98930.81;5054585;28;20464;-51
2022/09/10 05:18:29;;;;;;;;;;;;;;;15.02;72.42;98920.03;5072496;28;19924;-50
2022/09/10 05:20:54;;;;;;;;;;;;;;;15.06;72.38;98930.97;5072470;28;20506;-49
2022/09/10 05:23:20;;;;;;;;;;;;;;;15.13;72.04;98936.94;5072358;28;19917;-50
2022/09/10 05:25:47;;;;;;;;;;;;;;;15.15;72.28;98941.00;5053446;28;19920;-51
2022/09/10 05:28:14;;;;;;;;;;;;;;;15.24;72.14;98941.50;5072228;28;19916;-51
2022/09/10 05:30:40;;;;;;;;;;;;;;;15.30;72.06;98934.50;5072321;28;19916;-51
2022/09/10 05:33:06;;;;;;;;;;;;;;;15.32;72.00;98943.03;5072223;28;20385;-51
2022/09/10 05:35:32;;;;;;;;;;;;;;;15.35;71.73;98946.03;5072253;28;20344;-51
2022/09/10 05:38:00;;;;;;;;;;;;;;;15.69;71.36;98945.53;5072245;28;19923;-51
2022/09/10 05:40:28;;;;;;;;;;;;;;;16.05;71.13;98939.28;5072215;28;19927;-49
2022/09/10 05:42:53;;;;;;;;;;;;;;;16.37;70.40;98944.22;5072219;28;19916;-49
2022/09/10 05:45:19;;;;;;;;;;;;;;;16.66;68.96;98941.66;5072180;28;19943;-49
2022/09/10 05:47:45;;;;;;;;;;;;;;;16.62;67.83;98940.50;5054076;28;19966;-51
2022/09/10 05:50:10;;;;;;;;;;;;;;;16.50;67.44;98949.28;5072043;28;19917;-51
2022/09/10 05:52:36;;;;;;;;;;;;;;;16.43;67.57;98951.25;5072117;28;19916;-51
2022/09/10 05:55:01;;;;;;;;;;;;;;;16.56;67.89;98942.28;5072049;28;19921;-51
2022/09/10 05:57:27;;;;;;;;;;;;;;;16.91;67.64;98952.81;5072089;28;19951;-51
2022/09/10 05:59:52;;;;;;;;;;;;;;;17.28;67.06;98955.09;5072058;28;20412;-51
2022/09/10 06:02:18;;;;;;;;;;;;;;;17.56;66.13;98956.13;5071932;28;20465;-51
2022/09/10 06:04:46;;;;;;;;;;;;;;;17.71;65.43;98953.72;5054308;28;19924;-49
2022/09/10 06:07:12;;;;;;;;;;;;;;;17.91;65.02;98957.81;5072108;28;19943;-51
2022/09/10 06:09:37;;;;;;;;;;;;;;;18.09;64.66;98956.72;5054078;28;19916;-50
2022/09/10 06:12:05;;;;;;;;;;;;;;;18.42;63.58;98957.75;5071996;28;20298;-51
2022/09/10 06:14:31;;;;;;;;;;;;;;;18.82;62.32;98962.81;5071938;28;20394;-50
2022/09/10 06:16:56;;;;;;;;;;;;;;;19.12;61.05;98961.56;5071865;28;19962;-51
2022/09/10 06:19:22;;;;;;;;;;;;;;;19.26;60.24;98964.66;5053871;28;19916;-51
2022/09/10 06:21:49;;;;;;;;;;;;;;;19.33;59.76;98958.06;5071851;28;19987;-51
2022/09/10 06:24:15;;;;;;;;;;;;;;;19.39;59.77;98968.78;5053775;28;20387;-51
2022/09/10 06:26:40;;;;;;;;;;;;;;;19.51;59.25;98969.41;5071252;28;19943;-51
2022/09/10 06:29:06;;;;;;;;;;;;;;;19.78;59.12;98968.63;5071822;28;19928;-51
2022/09/10 06:31:33;;;;;;;;;;;;;;;20.27;58.46;98973.81;5071699;28;19927;-51
2022/09/10 06:33:58;;;;;;;;;;;;;;;20.62;57.07;98977.75;5071723;28;19916;-50
2022/09/10 06:36:24;;;;;;;;;;;;;;;20.89;56.88;98970.41;5072757;28;19927;-51
2022/09/10 06:38:49;;;;;;;;;;;;;;;21.20;56.11;98973.19;5057582;28;19916;-48
2022/09/10 06:41:15;;;;;;;;;;;;;;;21.45;55.54;98982.34;5075413;28;19916;-48
2022/09/10 06:43:41;;;;;;;;;;;;;;;21.41;54.48;98979.38;5075364;28;19956;-49
2022/09/10 06:46:13;;;;;;;;;;;;;;;20.81;54.17;98986.13;5075311;28;20016;-49
2022/09/10 06:48:40;;;;;;;;;;;;;;;20.09;55.37;98989.13;5075314;28;19916;-49
2022/09/10 06:51:07;;;;;;;;;;;;;;;19.85;56.33;98991.31;5057310;28;19924;-49
2022/09/10 06:53:32;;;;;;;;;;;;;;;20.07;56.81;98987.78;5075215;28;20019;-49
2022/09/10 06:56:02;;;;;;;;;;;;;;;21.17;56.08;98989.75;5075156;28;20046;-47
2022/09/10 06:58:30;;;;;;;;;;;;;;;23.19;53.29;98987.47;5075142;28;19920;-47
2022/09/10 07:00:55;;;;;;;;;;;;;;;25.08;49.63;98986.91;5075134;28;19916;-47
2022/09/10 07:03:21;;;;;;;;;;;;;;;26.10;45.68;98984.63;5075078;28;20262;-46
2022/09/10 07:05:47;;;;;;;;;;;;;;;26.65;42.94;98975.84;5075281;28;19916;-47
2022/09/10 07:08:16;;;;;;;;;;;;;;;27.01;42.65;98973.22;5074907;28;19917;-48
2022/09/10 07:10:43;;;;;;;;;;;;;;;27.15;40.44;98973.19;5074936;28;19974;-48
2022/09/10 07:13:09;;;;;;;;;;;;;;;27.49;41.05;98961.94;5056940;28;20397;-49
2022/09/10 07:15:35;;;;;;;;;;;;;;;28.64;39.85;98970.38;5074766;28;20465;-49
2022/09/10 07:18:01;;;;;;;;;;;;;;;29.59;36.61;98973.56;5056811;28;19916;-49
2022/09/10 07:20:28;;;;;;;;;;;;;;;29.68;36.62;98971.66;5074672;28;19974;-50
2022/09/10 07:22:57;;;;;;;;;;;;;;;29.88;36.60;98970.19;5074742;28;19923;-49
2022/09/10 07:25:23;;;;;;;;;;;;;;;30.65;36.02;98981.13;5074423;28;19921;-48
2022/09/10 07:27:49;;;;;;;;;;;;;;;31.15;34.35;98972.22;5074576;28;19924;-47
2022/09/10 07:30:16;;;;;;;;;;;;;;;31.17;33.38;98972.69;5056447;28;19920;-47
2022/09/10 07:32:42;;;;;;;;;;;;;;;31.37;33.17;98975.69;5056473;28;20291;-48
2022/09/10 07:35:07;;;;;;;;;;;;;;;31.66;32.20;98972.16;5074743;28;19927;-48
2022/09/10 07:37:33;;;;;;;;;;;;;;;31.94;32.91;98972.34;5056887;28;19965;-47
2022/09/10 07:39:58;;;;;;;;;;;;;;;32.52;32.19;98977.75;5056409;28;20299;-48
2022/09/10 07:42:24;;;;;;;;;;;;;;;33.24;31.42;98974.53;5074338;28;19923;-47
2022/09/10 07:44:49;;;;;;;;;;;;;;;33.42;30.55;98977.75;5074277;28;19920;-49
2022/09/10 07:47:15;;;;;;;;;;;;;;;33.73;30.13;98973.59;5073991;28;19916;-49
2022/09/10 07:49:43;;;;;;;;;;;;;;;34.45;29.66;98970.78;5073581;28;19927;-50
2022/09/10 07:52:12;;;;;;;;;;;;;;;34.88;28.89;98982.69;5074103;28;20007;-48
2022/09/10 07:54:38;;;;;;;;;;;;;;;35.37;28.78;98984.13;5056125;28;20022;-48
2022/09/10 07:57:04;;;;;;;;;;;;;;;36.24;28.36;98984.63;5056087;28;20023;-48
2022/09/10 07:59:29;;;;;;;;;;;;;;;36.85;26.52;98990.25;5074289;28;20357;-48
2022/09/10 08:01:55;;;;;;;;;;;;;;;37.32;26.88;98997.16;5073934;28;19951;-47
2022/09/10 08:04:22;;;;;;;;;;;;;;;37.92;26.44;98979.84;5073912;28;20006;-48
2022/09/10 08:06:48;;;;;;;;;;;;;;;38.30;25.83;98977.84;5073703;28;19916;-49
2022/09/10 08:09:13;;;;;;;;;;;;;;;38.71;24.83;98977.75;5055811;28;19916;-48
2022/09/10 08:11:39;;;;;;;;;;;;;;;39.00;24.13;98978.75;5073770;28;19916;-48
2022/09/10 08:14:05;;;;;;;;;;;;;;;38.68;23.76;98978.53;5074027;28;20015;-48
2022/09/10 08:16:31;;;;;;;;;;;;;;;38.83;23.91;98982.13;5073885;28;20006;-49
2022/09/10 08:18:59;;;;;;;;;;;;;;;39.39;23.56;98980.06;5073904;28;19916;-49
2022/09/10 08:21:25;;;;;;;;;;;;;;;39.46;23.01;98980.91;5073503;28;19920;-49
2022/09/10 08:23:54;;;;;;;;;;;;;;;39.44;23.10;98980.50;5055710;28;19916;-48
2022/09/10 08:26:22;;;;;;;;;;;;;;;39.44;23.21;98979.72;5073312;28;19928;-48
2022/09/10 08:28:51;;;;;;;;;;;;;;;39.38;22.70;98973.75;5073749;28;19927;-48
2022/09/10 08:31:17;;;;;;;;;;;;;;;39.53;22.17;98980.91;5055499;28;20054;-50
2022/09/10 08:33:46;;;;;;;;;;;;;;;38.69;22.94;98983.63;5073321;28;20412;-48
2022/09/10 08:36:13;;;;;;;;;;;;;;;37.50;23.90;98986.41;5055264;28;19921;-49
2022/09/10 08:38:39;;;;;;;;;;;;;;;36.73;24.20;98988.53;5073471;28;20397;-49
2022/09/10 08:41:08;;;;;;;;;;;;;;;36.70;24.71;98983.78;5073218;28;19920;-49
2022/09/10 08:43:41;;;;;;;;;;;;;;;36.24;25.10;98979.16;5073151;28;19971;-50
2022/09/10 08:46:15;;;;;;;;;;;;;;;36.51;24.62;98969.03;5055154;28;19923;-48
2022/09/10 08:48:43;;;;;;;;;;;;;;;37.25;23.52;98984.16;5072949;28;19920;-49
2022/09/10 08:51:14;;;;;;;;;;;;;;;37.71;22.51;98977.66;5072982;28;19999;-48
2022/09/10 08:53:40;;;;;;;;;;;;;;;37.82;22.29;98977.78;5072988;28;19966;-47
2022/09/10 08:56:18;;;;;;;;;;;;;;;37.22;22.14;98973.94;5072826;28;19923;-50
2022/09/10 08:58:55;;;;;;;;;;;;;;;37.21;22.56;98979.78;5072884;28;19927;-50
2022/09/10 09:01:27;;;;;;;;;;;;;;;37.92;21.60;98980.63;5072814;28;20416;-49
2022/09/10 09:03:55;;;;;;;;;;;;;;;38.21;21.83;98986.38;5072768;28;19974;-49
2022/09/10 09:06:44;;;;;;;;;;;;;;;38.70;21.33;98984.41;5072642;28;19917;-49
2022/09/10 09:09:10;;;;;;;;;;;;;;;36.61;21.96;98986.75;5064340;28;19966;-49
2022/09/10 09:11:58;;;;;;;;;;;;;;;34.45;24.26;98986.31;5072621;28;20016;-50
2022/09/10 09:14:45;;;;;;;;;;;;;;;32.97;25.96;98993.16;5054664;28;19922;-49
2022/09/10 09:17:23;;;;;;;;;;;;;;;31.79;26.97;98997.41;5072558;28;20023;-49
2022/09/10 09:19:57;;;;;;;;;;;;;;;30.65;28.05;98992.72;5072547;28;19917;-49
2022/09/10 09:22:32;;;;;;;;;;;;;;;29.62;29.48;98995.34;5072477;28;19922;-48
2022/09/10 09:24:59;;;;;;;;;;;;;;;28.74;30.30;98999.03;5072203;28;19927;-48
2022/09/10 09:27:32;;;;;;;;;;;;;;;27.82;30.90;99001.34;5072348;28;19928;-47
2022/09/10 09:30:04;;;;;;;;;;;;;;;27.06;32.24;99002.75;5071657;28;20272;-48
2022/09/10 09:32:33;;;;;;;;;;;;;;;26.53;32.88;99010.50;5054377;28;19920;-47
2022/09/10 09:35:11;;;;;;;;;;;;;;;26.34;33.38;99003.31;5072331;28;19927;-47
2022/09/10 09:37:37;;;;;;;;;;;;;;;26.70;33.23;98999.97;5054301;28;20314;-49
2022/09/10 09:40:12;;;;;;;;;;;;;;;28.23;32.03;98994.94;5054210;28;19947;-48
2022/09/10 09:42:48;;;;;;;;;;;;;;;29.29;30.53;98992.31;5072323;28;19916;-48
2022/09/10 09:45:20;;;;;;;;;;;;;;;29.75;29.83;99000.94;5072243;28;19959;-49
2022/09/10 09:47:45;;;;;;;;;;;;;;;30.21;29.23;98988.59;5072054;28;19921;-49
2022/09/10 09:50:11;;;;;;;;;;;;;;;31.42;28.54;98989.06;5072129;28;20314;-50
2022/09/10 09:52:40;;;;;;;;;;;;;;;32.76;27.44;98982.44;5072140;28;19923;-49
2022/09/10 09:55:10;;;;;;;;;;;;;;;33.43;25.75;98982.88;5054084;28;19927;-49
2022/09/10 09:57:36;;;;;;;;;;;;;;;34.11;24.79;98974.94;5072142;28;19970;-49
2022/09/10 10:00:22;;;;;;;;;;;;;;;35.65;23.40;98975.69;5072037;28;19967;-49
2022/09/10 10:02:50;;;;;;;;;;;;;;;36.05;22.73;98976.44;5043477;28;19924;-47
2022/09/10 10:05:23;;;;;;;;;;;;;;;34.85;22.94;98977.16;5071902;28;19927;-48
2022/09/10 10:07:52;;;;;;;;;;;;;;;33.85;23.95;98970.81;5053889;28;20012;-48
2022/09/10 10:10:24;;;;;;;;;;;;;;;33.29;24.47;98968.88;5053941;28;19923;-47
2022/09/10 10:12:52;;;;;;;;;;;;;;;32.70;24.48;98964.78;5057493;28;19916;-48
2022/09/10 10:15:37;;;;;;;;;;;;;;;32.37;24.60;98959.41;5058011;28;19991;-48
2022/09/10 10:18:21;;;;;;;;;;;;;;;31.95;25.06;98959.56;5075929;28;19923;-49
2022/09/10 10:20:48;;;;;;;;;;;;;;;31.70;25.39;98964.91;5075941;28;19978;-47
2022/09/10 10:23:32;;;;;;;;;;;;;;;31.42;25.11;98970.88;5076084;28;19917;-49
2022/09/10 10:26:14;;;;;;;;;;;;;;;31.03;25.69;98972.16;5075375;28;20003;-47
2022/09/10 10:28:44;;;;;;;;;;;;;;;30.90;26.37;98965.84;5075746;28;19921;-49
2022/09/10 10:31:10;;;;;;;;;;;;;;;30.79;25.95;98970.03;5057696;28;19917;-49
2022/09/10 10:33:40;;;;;;;;;;;;;;;30.38;26.47;98971.50;5075539;28;19916;-49
2022/09/10 10:36:05;;;;;;;;;;;;;;;29.71;27.62;98971.03;5076042;28;19974;-48
2022/09/10 10:38:34;;;;;;;;;;;;;;;29.15;27.67;98970.03;5075596;28;19920;-48
2022/09/10 10:41:08;;;;;;;;;;;;;;;28.70;28.96;98962.94;5075502;28;20337;-49
2022/09/10 10:43:41;;;;;;;;;;;;;;;28.19;30.04;98967.81;5075437;28;19960;-48
2022/09/10 10:46:26;;;;;;;;;;;;;;;27.83;31.32;98962.47;5075274;28;19917;-49
2022/09/10 10:48:57;;;;;;;;;;;;;;;27.45;32.21;98965.56;5074791;28;19920;-49
2022/09/10 10:51:49;;;;;;;;;;;;;;;27.10;32.94;98965.22;5075212;28;19925;-49
2022/09/10 10:54:29;;;;;;;;;;;;;;;26.88;33.43;98968.63;5075260;28;19962;-49
2022/09/10 10:57:24;;;;;;;;;;;;;;;26.95;33.10;98962.88;5075201;28;20357;-49
2022/09/10 11:00:02;;;;;;;;;;;;;;;27.50;32.86;98954.63;5061704;28;20386;-47
2022/09/10 11:02:51;;;;;;;;;;;;;;;29.42;30.80;98950.03;5075297;28;19916;-47
2022/09/10 11:05:24;;;;;;;;;;;;;;;31.34;27.66;98946.56;5075017;28;19917;-49
2022/09/10 11:07:51;;;;;;;;;;;;;;;32.77;25.26;98926.13;5075181;28;19963;-49
2022/09/10 11:10:38;;;;;;;;;;;;;;;33.35;24.32;98931.31;5074879;28;19920;-50
2022/09/10 11:13:22;;;;;;;;;;;;;;;34.54;22.61;98932.41;5074832;28;19916;-48
2022/09/10 11:15:54;;;;;;;;;;;;;;;35.16;21.99;98938.88;5075188;28;20015;-48
2022/09/10 11:18:41;;;;;;;;;;;;;;;35.73;21.33;98930.22;5074863;28;19927;-48
2022/09/10 11:21:25;;;;;;;;;;;;;;;34.36;21.82;98932.00;5056804;28;19916;-48
2022/09/10 11:23:55;;;;;;;;;;;;;;;34.61;21.69;98927.94;5073484;28;19970;-47
2022/09/10 11:26:28;;;;;;;;;;;;;;;35.88;20.64;98934.00;5056425;28;19926;-48
2022/09/10 11:28:53;;;;;;;;;;;;;;;36.61;19.56;98932.06;5074603;28;19940;-49
2022/09/10 11:31:29;;;;;;;;;;;;;;;37.20;18.96;98927.00;5074534;28;20409;-48
2022/09/10 11:34:08;;;;;;;;;;;;;;;36.83;18.36;98927.69;5074453;28;19920;-48
2022/09/10 11:36:54;;;;;;;;;;;;;;;35.50;19.59;98930.97;5074506;28;19927;-49
2022/09/10 11:39:28;;;;;;;;;;;;;;;35.58;19.91;98919.03;5074014;28;19917;-48
2022/09/10 11:41:53;;;;;;;;;;;;;;;36.11;19.71;98920.34;5074425;28;20011;-50
2022/09/10 11:44:37;;;;;;;;;;;;;;;36.26;19.29;98926.84;5056339;28;19975;-49
2022/09/10 11:47:25;;;;;;;;;;;;;;;36.72;19.35;98924.81;5056197;28;19916;-48
2022/09/10 11:50:00;;;;;;;;;;;;;;;36.99;19.43;98922.81;5074300;28;19921;-50
2022/09/10 11:52:27;;;;;;;;;;;;;;;37.47;18.18;98921.44;5056190;28;20002;-47
2022/09/10 11:54:53;;;;;;;;;;;;;;;37.35;18.43;98922.50;5074111;28;19925;-48
2022/09/10 11:57:27;;;;;;;;;;;;;;;36.83;18.18;98924.19;5056042;28;19926;-49
2022/09/10 12:00:10;;;;;;;;;;;;;;;35.89;19.00;98933.63;5056124;28;20011;-48
2022/09/10 12:02:39;;;;;;;;;;;;;;;34.89;20.07;98935.16;5073939;28;20283;-48
2022/09/10 12:05:18;;;;;;;;;;;;;;;35.08;20.50;98926.22;5073918;28;19963;-48
2022/09/10 12:07:47;;;;;;;;;;;;;;;36.00;19.52;98937.34;5073921;28;20298;-48
2022/09/10 12:10:32;;;;;;;;;;;;;;;36.46;19.09;98931.06;5073864;28;19917;-49
2022/09/10 12:12:58;;;;;;;;;;;;;;;35.86;19.60;98926.19;5073687;28;19917;-49
2022/09/10 12:15:23;;;;;;;;;;;;;;;35.63;19.29;98919.88;5074048;28;19990;-49
2022/09/10 12:18:01;;;;;;;;;;;;;;;35.46;19.85;98919.19;5073796;28;20295;-49
2022/09/10 12:20:49;;;;;;;;;;;;;;;35.17;20.11;98924.06;5073589;28;20287;-49
2022/09/10 12:23:48;;;;;;;;;;;;;;;35.54;20.26;98926.38;5047406;28;20298;-49
2022/09/10 12:26:19;;;;;;;;;;;;;;;36.25;19.69;98915.13;5039426;28;20327;-49
2022/09/10 12:28:45;;;;;;;;;;;;;;;36.93;19.32;98921.56;5073327;28;20448;-48
2022/09/10 12:31:12;;;;;;;;;;;;;;;37.22;19.18;98915.69;5073399;28;19920;-50
2022/09/10 12:33:41;;;;;;;;;;;;;;;37.02;19.22;98907.59;5073175;28;19920;-49
2022/09/10 12:36:08;;;;;;;;;;;;;;;36.21;19.24;98921.69;5055311;28;20003;-49
2022/09/10 12:38:46;;;;;;;;;;;;;;;35.93;19.23;98918.09;5073337;28;19920;-49
2022/09/10 12:41:37;;;;;;;;;;;;;;;35.80;19.17;98919.44;5073167;28;19999;-50
2022/09/10 12:44:25;;;;;;;;;;;;;;;35.59;19.33;98909.66;5049397;28;19916;-49
2022/09/10 12:47:09;;;;;;;;;;;;;;;34.85;20.08;98917.94;5073083;28;19951;-47
2022/09/10 12:49:42;;;;;;;;;;;;;;;34.53;20.16;98911.75;5073040;28;19917;-47
2022/09/10 12:52:09;;;;;;;;;;;;;;;33.79;20.77;98921.25;5073016;28;20356;-49
2022/09/10 12:54:54;;;;;;;;;;;;;;;33.54;21.27;98909.66;5072974;28;19916;-50
2022/09/10 12:57:26;;;;;;;;;;;;;;;32.95;21.71;98905.69;5073135;28;19916;-49
2022/09/10 13:00:11;;;;;;;;;;;;;;;32.21;22.55;98908.47;5054951;28;19923;-49